Bennett, North Carolina
Current Conditions -  °F | °C
As of 5:15 PM on Sunday 23 Nov 2014 (Local Time) from K5W8 Reporting Station
Drizzle Drizzle  
Wind Chill: 54°   Ceiling: 400
Heat Index: 54°   Visibility: 10mi
Dew Point: 54°   Wind: 7mph
Humidity: 100%   Direction: 100°E
Pressure: 29.94"   Gusts: NA
Location:  35.57°N, 79.54°W
Report Text: K5W8 232215Z AUTO 10006KT 10SM DZ OVC004 12/12 A2994 RMK AO2 T01220122
Loading
Personal Weather Stations






























Interactive Weather Map New forecast layout! Learn more

10-Day Weather Forecast

Advertisements
Track Severe Weather on mobile